Time;durP1;ratioP1;P1;durP2;ratioP2;P2;SDS_P1;SDS_P2;PMS_P1;PMS_P2;Temp;Humidity;BMP_temperature;BMP_pressure;BME280_temperature;BME280_humidity;BME280_pressure;Samples;Min_cycle;Max_cycle;Signal;HPM_P1;HPM_P2
2022/01/11 00:02:09;;;;;;;5.90;4.70;;;16.20;55.50;16.90;102222.00;;;;5044396;28;20178;-39
2022/01/11 00:04:34;;;;;;;4.43;4.03;;;16.10;55.40;16.90;102222.00;;;;5045491;28;20175;-41
2022/01/11 00:07:03;;;;;;;5.30;4.50;;;16.10;55.40;16.80;102221.00;;;;5050502;28;20178;-39
2022/01/11 00:09:40;;;;;;;5.23;4.70;;;16.10;55.50;16.80;102219.00;;;;5054201;28;20210;-40
2022/01/11 00:12:08;;;;;;;5.43;4.23;;;16.00;55.50;16.80;102213.00;;;;5049723;28;20170;-40
2022/01/11 00:14:34;;;;;;;5.20;4.10;;;16.00;55.70;16.80;102227.00;;;;5044737;28;20666;-40
2022/01/11 00:17:00;;;;;;;4.43;4.00;;;16.00;55.60;16.70;102226.00;;;;5046524;28;20986;-40
2022/01/11 00:19:28;;;;;;;4.67;4.10;;;16.00;55.50;16.70;102220.00;;;;5048448;28;20167;-40
2022/01/11 00:21:54;;;;;;;4.40;4.00;;;15.90;55.80;16.70;102221.00;;;;5047563;28;20442;-39
2022/01/11 00:24:30;;;;;;;4.50;4.10;;;15.90;55.90;16.70;102221.00;;;;5045656;28;20194;-39
2022/01/11 00:27:04;;;;;;;4.87;4.30;;;15.90;55.70;16.60;102217.00;;;;5045502;28;20157;-38
2022/01/11 00:29:30;;;;;;;4.43;4.03;;;15.80;55.80;16.60;102224.00;;;;5045014;28;20209;-39
2022/01/11 00:32:01;;;;;;;4.37;3.97;;;15.80;55.80;16.60;102217.00;;;;5044327;28;20180;-39
2022/01/11 00:34:36;;;;;;;5.07;4.57;;;15.80;55.80;16.50;102227.00;;;;5048652;28;20173;-39
2022/01/11 00:37:02;;;;;;;6.17;4.20;;;15.80;56.00;16.50;102231.00;;;;5048890;28;20197;-39
2022/01/11 00:39:27;;;;;;;4.90;4.40;;;15.70;55.70;16.50;102222.00;;;;5049478;28;20174;-40
2022/01/11 00:41:53;;;;;;;4.70;4.13;;;15.70;55.70;16.50;102232.00;;;;5048862;28;20170;-39
2022/01/11 00:44:19;;;;;;;4.57;4.17;;;15.70;55.80;16.40;102240.00;;;;5048270;28;20179;-39
2022/01/11 00:46:45;;;;;;;4.30;4.00;;;15.70;55.90;16.40;102222.00;;;;5048204;28;20183;-39
2022/01/11 00:49:11;;;;;;;4.43;4.03;;;15.60;55.80;16.40;102225.00;;;;5048282;28;20214;-39
2022/01/11 00:51:37;;;;;;;4.50;4.10;;;15.60;55.90;16.40;102226.00;;;;5048492;28;20174;-40
2022/01/11 00:54:03;;;;;;;4.37;4.00;;;15.60;55.90;16.30;102233.00;;;;5048002;28;20167;-40
2022/01/11 00:56:28;;;;;;;4.27;3.97;;;15.50;55.80;16.30;102226.00;;;;5048332;28;20185;-39
2022/01/11 00:58:54;;;;;;;4.20;3.80;;;15.60;56.00;16.30;102231.00;;;;5047881;28;20201;-39
2022/01/11 01:01:20;;;;;;;4.67;4.27;;;15.50;56.20;16.30;102225.00;;;;5048198;28;20174;-39
2022/01/11 01:03:45;;;;;;;3.93;3.63;;;15.50;56.00;16.30;102233.00;;;;5047850;28;20687;-39
2022/01/11 01:06:11;;;;;;;4.43;4.03;;;15.50;56.00;16.30;102230.00;;;;5048263;28;20577;-39
2022/01/11 01:08:37;;;;;;;4.40;3.90;;;15.50;56.30;16.20;102239.00;;;;5047666;28;20206;-39
2022/01/11 01:11:03;;;;;;;4.30;4.00;;;15.40;56.50;16.20;102241.00;;;;5048114;28;20543;-39
2022/01/11 01:13:29;;;;;;;4.10;3.80;;;15.40;56.20;16.20;102235.00;;;;5047449;28;20217;-39
2022/01/11 01:15:55;;;;;;;4.10;3.77;;;15.40;56.30;16.20;102235.00;;;;5046475;28;20167;-40
2022/01/11 01:18:26;;;;;;;3.90;3.60;;;15.40;56.30;16.10;102242.00;;;;5047555;28;20202;-40
2022/01/11 01:20:52;;;;;;;4.30;3.90;;;15.40;56.50;16.10;102242.00;;;;5048018;28;20155;-39
2022/01/11 01:23:19;;;;;;;4.43;4.03;;;15.30;56.50;16.10;102246.00;;;;5047578;28;20189;-40
2022/01/11 01:25:45;;;;;;;4.10;3.80;;;15.30;56.50;16.10;102239.00;;;;5047229;28;20170;-40
2022/01/11 01:28:11;;;;;;;4.03;3.73;;;15.40;56.10;16.20;102246.00;;;;5047348;28;20216;-40
2022/01/11 01:30:37;;;;;;;4.20;3.80;;;15.40;55.90;16.20;102253.00;;;;5047797;28;20250;-40
2022/01/11 01:33:03;;;;;;;4.20;3.80;;;15.50;56.50;16.20;102257.00;;;;5047743;28;20257;-39
2022/01/11 01:35:34;;;;;;;3.93;3.63;;;15.50;55.60;16.20;102252.00;;;;5046520;28;20166;-39
2022/01/11 01:38:00;;;;;;;4.30;3.90;;;15.50;55.70;16.20;102247.00;;;;5047794;28;20671;-38
2022/01/11 01:40:26;;;;;;;4.47;4.07;;;15.50;55.50;16.20;102257.00;;;;5047843;28;20254;-39
2022/01/11 01:42:52;;;;;;;3.70;3.40;;;15.50;55.60;16.20;102255.00;;;;5047272;28;20170;-39
2022/01/11 01:45:23;;;;;;;3.90;3.60;;;15.40;55.50;16.20;102259.00;;;;5046554;28;20681;-40
2022/01/11 01:47:52;;;;;;;4.60;3.80;;;15.50;55.60;16.20;102262.00;;;;5047366;28;20226;-39
2022/01/11 01:50:18;;;;;;;3.90;3.60;;;15.40;55.50;16.20;102276.00;;;;5047505;28;20691;-39
2022/01/11 01:52:44;;;;;;;3.73;3.43;;;15.40;56.30;16.20;102281.00;;;;5047137;28;20174;-39
2022/01/11 01:55:10;;;;;;;5.10;3.50;;;15.40;55.50;16.20;102266.00;;;;5046932;28;20182;-39
2022/01/11 01:57:36;;;;;;;3.77;3.47;;;15.40;55.50;16.10;102279.00;;;;5029368;28;20264;-39
2022/01/11 02:00:07;;;;;;;4.17;3.70;;;15.40;55.70;16.10;102281.00;;;;5046154;28;20171;-40
2022/01/11 02:02:35;;;;;;;4.00;3.70;;;15.30;55.60;16.10;102283.00;;;;5048268;28;20305;-40
2022/01/11 02:05:02;;;;;;;3.80;3.50;;;15.30;55.30;16.10;102285.00;;;;5049156;28;20295;-40
2022/01/11 02:07:27;;;;;;;3.97;3.67;;;15.30;55.30;16.10;102286.00;;;;5047784;28;20194;-40
2022/01/11 02:09:53;;;;;;;3.90;3.60;;;15.30;55.30;16.10;102275.00;;;;5047798;28;20178;-40
2022/01/11 02:12:19;;;;;;;4.03;3.73;;;15.30;55.40;16.10;102285.00;;;;5048338;28;20174;-40
2022/01/11 02:14:45;;;;;;;3.90;3.60;;;15.30;55.30;16.10;102288.00;;;;5047535;28;20182;-40
2022/01/11 02:17:11;;;;;;;3.83;3.53;;;15.30;55.00;16.10;102282.00;;;;5046932;28;20201;-40
2022/01/11 02:19:36;;;;;;;3.90;3.60;;;15.30;55.30;16.10;102294.00;;;;5046887;28;20166;-40
2022/01/11 02:22:02;;;;;;;3.90;3.60;;;15.30;55.60;15.80;102297.00;;;;5046407;28;20189;-39
2022/01/11 02:24:32;;;;;;;3.90;3.60;;;15.30;55.40;16.00;102298.00;;;;5046515;28;20190;-40
2022/01/11 02:26:57;;;;;;;4.10;3.80;;;15.30;55.10;16.10;102304.00;;;;5046373;28;20206;-39
2022/01/11 02:29:23;;;;;;;3.60;3.30;;;15.20;55.20;16.00;102299.00;;;;5046280;28;20738;-40
2022/01/11 02:31:49;;;;;;;3.73;3.43;;;15.20;55.20;16.00;102300.00;;;;5045372;28;20170;-39
2022/01/11 02:34:14;;;;;;;3.63;3.33;;;15.20;55.20;16.00;102303.00;;;;5046522;28;20170;-40
2022/01/11 02:36:40;;;;;;;3.70;3.40;;;15.20;55.40;16.00;102306.00;;;;5046621;28;20174;-40
2022/01/11 02:39:06;;;;;;;3.80;3.50;;;15.20;55.10;16.00;102221.00;;;;5046034;28;20198;-40
2022/01/11 02:41:32;;;;;;;4.00;3.70;;;15.20;55.20;16.00;102306.00;;;;5046604;28;20167;-39
2022/01/11 02:43:58;;;;;;;3.50;3.20;;;15.10;55.00;16.00;102299.00;;;;5044988;28;20228;-40
2022/01/11 02:46:24;;;;;;;3.97;3.40;;;15.10;54.80;16.00;102305.00;;;;5046250;28;20656;-40
2022/01/11 02:48:51;;;;;;;3.87;3.57;;;15.10;55.30;16.00;102304.00;;;;5045996;28;20202;-40
2022/01/11 02:51:17;;;;;;;3.90;3.60;;;15.10;55.10;16.00;102308.00;;;;5045780;28;20163;-40
2022/01/11 02:53:48;;;;;;;3.90;3.60;;;15.10;54.90;16.00;102308.00;;;;5046107;28;20221;-38
2022/01/11 02:56:15;;;;;;;3.80;3.50;;;15.10;55.30;16.00;102278.00;;;;5045226;28;20178;-38
2022/01/11 02:58:41;;;;;;;3.60;3.30;;;15.00;55.30;16.00;102311.00;;;;5044908;28;20198;-39
2022/01/11 03:01:06;;;;;;;3.40;3.20;;;15.00;55.20;15.90;102314.00;;;;5046041;28;20178;-39
2022/01/11 03:03:32;;;;;;;3.50;3.20;;;15.10;55.30;15.90;102307.00;;;;5045529;28;20783;-40
2022/01/11 03:06:02;;;;;;;3.80;3.50;;;15.00;55.20;15.90;102318.00;;;;5045711;28;20235;-39
2022/01/11 03:08:36;;;;;;;3.80;3.50;;;15.00;55.30;15.90;102316.00;;;;5045635;28;20214;-40
2022/01/11 03:11:02;;;;;;;3.90;3.60;;;15.00;55.30;15.90;102321.00;;;;5045913;28;20174;-40
2022/01/11 03:13:27;;;;;;;3.90;3.60;;;14.90;55.30;15.90;102320.00;;;;5045503;28;20193;-40
2022/01/11 03:15:54;;;;;;;3.70;3.40;;;14.90;55.40;15.90;102318.00;;;;5045421;28;20158;-40
2022/01/11 03:18:20;;;;;;;3.50;3.20;;;14.90;55.30;15.90;102324.00;;;;5046025;28;20196;-39
2022/01/11 03:20:48;;;;;;;3.50;3.30;;;14.90;55.30;15.80;102325.00;;;;5045919;28;20176;-39
2022/01/11 03:23:14;;;;;;;3.60;3.30;;;14.90;55.20;15.80;102315.00;;;;5045604;28;20185;-39
2022/01/11 03:25:41;;;;;;;3.70;3.40;;;14.90;55.30;15.80;102328.00;;;;5045502;28;20209;-39
2022/01/11 03:28:06;;;;;;;3.70;3.40;;;14.90;55.20;15.80;102322.00;;;;5045290;28;20213;-39
2022/01/11 03:30:32;;;;;;;3.73;3.43;;;14.90;55.30;15.80;102328.00;;;;5045872;28;20186;-39
2022/01/11 03:32:58;;;;;;;3.70;3.40;;;14.80;55.10;15.80;102329.00;;;;5044456;28;20585;-39
2022/01/11 03:35:24;;;;;;;3.30;3.10;;;14.80;55.10;15.80;102329.00;;;;5045272;28;20205;-40
2022/01/11 03:37:50;;;;;;;3.80;3.50;;;14.90;55.10;15.80;102333.00;;;;5045685;28;20198;-39
2022/01/11 03:40:18;;;;;;;3.80;3.40;;;14.80;55.10;15.80;102329.00;;;;5045479;28;20304;-39
2022/01/11 03:42:44;;;;;;;3.80;3.50;;;14.80;55.30;15.80;102329.00;;;;5044998;28;20663;-39
2022/01/11 03:45:11;;;;;;;3.60;3.30;;;14.80;55.00;15.70;102332.00;;;;5045034;28;20185;-39
2022/01/11 03:47:37;;;;;;;3.43;3.13;;;14.80;55.30;15.70;102327.00;;;;5045302;28;20197;-39
2022/01/11 03:50:06;;;;;;;3.40;3.20;;;14.80;55.30;15.70;102328.00;;;;5045629;28;20166;-39
2022/01/11 03:52:32;;;;;;;3.37;3.07;;;14.70;55.30;15.70;102334.00;;;;5045130;28;20261;-39
2022/01/11 03:57:25;;;;;;;3.40;3.10;;;14.70;56.00;15.70;102332.00;;;;5048314;28;20229;-39
2022/01/11 03:59:51;;;;;;;3.60;3.37;;;14.70;55.40;15.70;102325.00;;;;5046894;28;20178;-39
2022/01/11 04:02:17;;;;;;;3.50;3.20;;;14.70;55.70;15.60;102341.00;;;;5046941;28;20186;-47
2022/01/11 04:04:44;;;;;;;3.57;3.27;;;14.70;55.50;15.60;102341.00;;;;5046909;28;20170;-40
2022/01/11 04:07:09;;;;;;;3.40;3.20;;;14.60;55.40;15.60;102342.00;;;;5047065;28;20288;-40
2022/01/11 04:09:35;;;;;;;3.27;3.00;;;14.60;55.50;15.60;102338.00;;;;5050243;28;20798;-39
2022/01/11 04:12:01;;;;;;;3.30;3.10;;;14.60;55.50;15.60;102342.00;;;;5048989;28;20179;-39
2022/01/11 04:14:26;;;;;;;3.43;3.23;;;14.60;55.30;15.60;102342.00;;;;5048693;28;20677;-39
2022/01/11 04:16:53;;;;;;;3.37;2.90;;;14.60;55.10;15.50;102352.00;;;;5048840;28;20178;-40
2022/01/11 04:19:20;;;;;;;3.40;3.20;;;14.60;55.20;15.50;102346.00;;;;5048866;28;20590;-39
2022/01/11 04:21:46;;;;;;;3.53;3.23;;;14.60;55.10;15.50;102353.00;;;;5047656;28;20174;-39
2022/01/11 04:24:13;;;;;;;3.60;3.30;;;14.60;55.50;15.50;102346.00;;;;5049319;28;20186;-39
2022/01/11 04:26:39;;;;;;;3.50;3.20;;;14.60;55.40;15.50;102338.00;;;;5049092;28;20591;-39
2022/01/11 04:29:04;;;;;;;3.60;3.30;;;14.50;55.30;15.50;102344.00;;;;5047584;28;20256;-40
2022/01/11 04:31:30;;;;;;;3.70;3.40;;;14.50;55.80;15.50;102351.00;;;;5048455;28;20533;-40
2022/01/11 04:33:56;;;;;;;3.40;2.93;;;14.50;56.20;15.50;102352.00;;;;5048868;28;20174;-39
2022/01/11 04:36:21;;;;;;;8.00;3.30;;;14.50;55.80;15.50;102342.00;;;;5052866;28;20807;-39
2022/01/11 04:38:47;;;;;;;3.73;3.33;;;14.40;55.90;15.40;102351.00;;;;5052668;28;20198;-39
2022/01/11 04:41:13;;;;;;;3.40;3.10;;;14.30;55.80;15.40;102353.00;;;;5052368;28;20170;-39
2022/01/11 04:43:39;;;;;;;3.13;2.83;;;14.40;55.80;15.40;102340.00;;;;5048433;28;20178;-40
2022/01/11 04:46:04;;;;;;;4.30;3.07;;;14.40;55.70;15.10;102346.00;;;;5050382;28;20308;-39
2022/01/11 04:48:32;;;;;;;4.93;3.10;;;14.40;55.70;15.40;102344.00;;;;5051899;28;20198;-40
2022/01/11 04:51:02;;;;;;;3.80;2.90;;;14.30;55.60;15.40;102351.00;;;;5050678;28;20162;-40
2022/01/11 04:53:28;;;;;;;4.00;3.00;;;14.30;55.50;15.40;102346.00;;;;5048600;28;20166;-39
2022/01/11 04:55:55;;;;;;;3.63;3.33;;;14.30;55.30;15.30;102360.00;;;;5057213;28;20177;-40
2022/01/11 04:58:20;;;;;;;4.17;3.13;;;14.40;55.40;15.30;102355.00;;;;5068525;28;20193;-40
2022/01/11 05:00:46;;;;;;;4.07;3.00;;;14.30;55.50;15.30;102358.00;;;;5046183;28;20174;-39
2022/01/11 05:03:12;;;;;;;3.40;3.10;;;14.30;55.50;15.30;102352.00;;;;5036337;28;20179;-39
2022/01/11 05:05:38;;;;;;;3.97;2.90;;;14.20;55.70;15.30;102356.00;;;;5029601;28;20163;-40
2022/01/11 05:08:05;;;;;;;3.40;3.10;;;14.20;55.50;15.30;102353.00;;;;5029800;28;20288;-39
2022/01/11 05:10:31;;;;;;;3.33;3.13;;;14.20;55.70;15.30;102355.00;;;;5029937;28;20170;-39
2022/01/11 05:12:57;;;;;;;3.93;3.03;;;14.20;55.70;15.30;102353.00;;;;5028206;28;20258;-39
2022/01/11 05:15:25;;;;;;;3.30;3.00;;;14.20;55.70;15.30;102358.00;;;;5027753;28;20579;-40
2022/01/11 05:17:52;;;;;;;4.10;3.00;;;14.30;55.80;15.20;102360.00;;;;5027995;28;20237;-39
2022/01/11 05:20:18;;;;;;;3.90;3.30;;;14.30;55.60;15.20;102363.00;;;;5027276;28;20202;-39
2022/01/11 05:22:47;;;;;;;3.20;2.90;;;14.30;55.40;15.20;102358.00;;;;5027876;28;20247;-39
2022/01/11 05:25:14;;;;;;;4.10;3.40;;;14.20;55.50;15.20;102363.00;;;;5027476;28;20182;-39
2022/01/11 05:27:40;;;;;;;6.67;3.43;;;14.20;55.50;15.20;102385.00;;;;5027282;28;20302;-39
2022/01/11 05:30:07;;;;;;;5.80;3.30;;;14.20;55.60;15.20;102364.00;;;;5027935;28;20252;-39
2022/01/11 05:32:35;;;;;;;4.87;3.63;;;14.20;55.80;15.20;102383.00;;;;5027027;28;20171;-38
2022/01/11 05:35:05;;;;;;;4.00;3.40;;;14.10;55.80;15.10;102370.00;;;;5027240;28;20886;-39
2022/01/11 05:37:31;;;;;;;4.17;3.30;;;14.10;56.10;15.10;102369.00;;;;5027638;28;20203;-39
2022/01/11 05:39:58;;;;;;;5.37;3.37;;;14.10;56.10;15.10;102377.00;;;;5030085;28;20190;-39
2022/01/11 05:42:25;;;;;;;7.10;3.60;;;14.10;56.20;15.10;102386.00;;;;5027550;28;20230;-39
2022/01/11 05:44:51;;;;;;;3.80;3.50;;;14.20;56.10;14.80;102372.00;;;;5026661;28;20612;-39
2022/01/11 05:47:16;;;;;;;5.27;3.47;;;14.10;56.10;15.10;102389.00;;;;5028528;28;20225;-39
2022/01/11 05:49:42;;;;;;;3.63;3.13;;;14.10;56.00;15.10;102388.00;;;;5030649;28;20202;-39
2022/01/11 05:52:08;;;;;;;6.40;3.50;;;14.10;56.10;15.10;102398.00;;;;5028529;28;20179;-38
2022/01/11 05:54:33;;;;;;;3.40;3.10;;;14.10;56.00;15.10;102401.00;;;;5028819;28;20178;-39
2022/01/11 05:56:59;;;;;;;4.40;3.30;;;14.10;56.10;15.10;102413.00;;;;5027815;28;20749;-39
2022/01/11 05:59:25;;;;;;;3.97;3.27;;;14.00;55.90;15.00;102402.00;;;;5029081;28;20175;-39
2022/01/11 06:01:50;;;;;;;5.07;3.70;;;14.10;55.80;15.00;102401.00;;;;5027810;28;20182;-38
2022/01/11 06:04:16;;;;;;;3.40;3.10;;;14.10;56.10;15.00;102398.00;;;;5026835;28;20175;-40
2022/01/11 06:06:42;;;;;;;5.50;3.10;;;14.10;55.90;15.00;102402.00;;;;5026796;28;20167;-39
2022/01/11 06:09:07;;;;;;;3.63;3.30;;;14.10;55.80;15.00;102410.00;;;;5026188;28;20203;-39
2022/01/11 06:11:33;;;;;;;3.43;3.13;;;14.00;56.00;15.00;102407.00;;;;5033178;28;20750;-39
2022/01/11 06:13:59;;;;;;;3.50;3.20;;;14.00;56.00;14.90;102383.00;;;;5046122;28;20244;-38
2022/01/11 06:16:25;;;;;;;5.00;3.30;;;14.00;55.70;14.90;102398.00;;;;5046763;28;20212;-40
2022/01/11 06:18:51;;;;;;;3.77;3.47;;;14.00;55.90;14.90;102391.00;;;;5046487;28;20194;-40
2022/01/11 06:21:16;;;;;;;3.60;3.23;;;14.00;55.90;14.90;102410.00;;;;5046855;28;20178;-39
2022/01/11 06:23:42;;;;;;;3.77;3.10;;;14.00;55.80;14.90;102393.00;;;;5046179;28;20174;-39
2022/01/11 06:26:08;;;;;;;4.83;3.30;;;13.90;55.80;14.90;102393.00;;;;5046530;28;20204;-40
2022/01/11 06:28:34;;;;;;;3.70;3.33;;;13.90;55.70;14.90;102399.00;;;;5046072;28;20296;-40
2022/01/11 06:30:59;;;;;;;3.70;3.40;;;13.90;55.70;14.90;102416.00;;;;5046348;28;20380;-39
2022/01/11 06:33:25;;;;;;;3.70;3.40;;;13.90;55.80;14.80;102421.00;;;;5045010;28;20159;-39
2022/01/11 06:35:51;;;;;;;3.23;2.93;;;13.90;55.80;14.80;102422.00;;;;5045614;28;20217;-39
2022/01/11 06:38:16;;;;;;;3.10;2.90;;;13.80;55.50;14.80;102425.00;;;;5046459;28;20668;-39
2022/01/11 06:40:42;;;;;;;3.60;2.90;;;13.80;55.70;14.80;102419.00;;;;5046503;28;20174;-39
2022/01/11 06:43:08;;;;;;;3.40;3.10;;;13.80;55.70;14.80;102413.00;;;;5047227;28;20227;-39
2022/01/11 06:45:34;;;;;;;3.33;3.03;;;13.80;55.60;14.80;102419.00;;;;5046836;28;20189;-40
2022/01/11 06:48:00;;;;;;;5.53;3.20;;;13.80;55.70;14.80;102422.00;;;;5045727;28;20206;-41
2022/01/11 06:50:27;;;;;;;3.10;2.90;;;13.80;55.50;14.80;102427.00;;;;5046522;28;20220;-39
2022/01/11 06:52:53;;;;;;;3.40;3.10;;;13.80;55.60;14.70;102430.00;;;;5045977;28;20162;-39
2022/01/11 06:55:21;;;;;;;3.43;3.13;;;13.80;55.70;14.80;102427.00;;;;5045455;28;20178;-39
2022/01/11 06:57:47;;;;;;;3.00;2.80;;;13.80;55.50;14.70;102425.00;;;;5045644;28;20201;-40
2022/01/11 07:00:14;;;;;;;3.50;3.20;;;13.70;55.50;14.70;102440.00;;;;5045735;28;20178;-40
2022/01/11 07:02:40;;;;;;;3.70;3.20;;;13.70;55.40;14.70;102435.00;;;;5046174;28;20789;-39
2022/01/11 07:05:06;;;;;;;3.47;3.17;;;13.70;55.40;14.70;102439.00;;;;5045290;28;20180;-40
2022/01/11 07:07:32;;;;;;;3.40;3.10;;;13.70;55.50;14.70;102434.00;;;;5045329;28;20194;-38
2022/01/11 07:09:58;;;;;;;3.00;2.80;;;13.70;55.50;14.60;102433.00;;;;5045904;28;20710;-40
2022/01/11 07:12:23;;;;;;;3.10;2.90;;;13.70;55.60;14.60;102432.00;;;;5044641;28;20170;-39
2022/01/11 07:14:49;;;;;;;3.37;3.10;;;13.70;55.60;14.60;102441.00;;;;5045293;28;20216;-39
2022/01/11 07:17:15;;;;;;;3.30;3.00;;;13.60;55.60;14.60;102439.00;;;;5045845;28;20601;-40
2022/01/11 07:19:41;;;;;;;3.40;3.10;;;13.60;55.40;14.60;102409.00;;;;5045789;28;20165;-39
2022/01/11 07:22:07;;;;;;;3.10;2.90;;;13.60;55.60;14.60;102450.00;;;;5044358;28;20166;-39
2022/01/11 07:24:33;;;;;;;3.20;2.90;;;13.60;55.70;14.60;102444.00;;;;5045206;28;20197;-40
2022/01/11 07:26:58;;;;;;;2.97;2.77;;;13.50;55.60;14.50;102446.00;;;;5045241;28;20162;-39
2022/01/11 07:29:24;;;;;;;3.00;2.80;;;13.60;55.60;14.50;102453.00;;;;5045513;28;20870;-39
2022/01/11 07:31:50;;;;;;;3.13;2.93;;;13.50;55.60;14.50;102451.00;;;;5045563;28;20205;-39
2022/01/11 07:34:16;;;;;;;2.90;2.70;;;13.60;55.30;14.50;102455.00;;;;5045173;28;20612;-39
2022/01/11 07:36:42;;;;;;;3.10;2.90;;;13.60;55.40;14.50;102451.00;;;;5044999;28;20177;-39
2022/01/11 07:39:08;;;;;;;3.00;2.80;;;13.50;55.50;14.50;102459.00;;;;5045367;28;20590;-39
2022/01/11 07:41:34;;;;;;;3.50;3.20;;;13.50;55.30;14.40;102461.00;;;;5048537;28;20229;-45
2022/01/11 07:44:00;;;;;;;3.00;2.80;;;13.50;55.30;14.50;102387.00;;;;5049430;28;20175;-39
2022/01/11 07:46:26;;;;;;;2.93;2.70;;;13.50;55.30;14.40;102470.00;;;;5062500;28;20173;-40
2022/01/11 07:48:51;;;;;;;3.10;2.90;;;13.50;55.30;14.40;102442.00;;;;5045935;28;20213;-39
2022/01/11 07:51:17;;;;;;;3.10;2.90;;;13.50;55.40;14.40;102465.00;;;;5044988;28;20174;-39
2022/01/11 07:53:43;;;;;;;3.10;2.90;;;13.50;55.20;14.40;102473.00;;;;5046809;28;20166;-39
2022/01/11 07:56:08;;;;;;;2.80;2.60;;;13.40;55.40;14.40;102480.00;;;;5045700;28;20174;-39
2022/01/11 07:58:34;;;;;;;3.10;2.80;;;13.40;55.30;14.40;102480.00;;;;5044099;28;20194;-39
2022/01/11 08:01:00;;;;;;;2.97;2.77;;;13.40;55.90;14.40;102472.00;;;;5045274;28;20170;-38
2022/01/11 08:03:26;;;;;;;3.00;2.80;;;13.40;55.30;14.40;102476.00;;;;5045224;28;20177;-39
2022/01/11 08:05:53;;;;;;;2.90;2.70;;;13.40;55.20;14.40;102475.00;;;;5045110;28;20178;-40
2022/01/11 08:08:19;;;;;;;3.03;2.83;;;13.40;55.10;14.30;102469.00;;;;5045783;28;20225;-39
2022/01/11 08:10:44;;;;;;;3.17;2.97;;;13.30;55.30;14.30;102480.00;;;;5045893;28;20258;-40
2022/01/11 08:13:10;;;;;;;3.10;2.90;;;13.30;55.30;14.30;102484.00;;;;5045305;28;20708;-39
2022/01/11 08:15:37;;;;;;;2.90;2.70;;;13.30;55.30;14.30;102485.00;;;;5045876;28;20166;-39
2022/01/11 08:18:08;;;;;;;2.90;2.70;;;13.30;55.20;14.30;102480.00;;;;5045294;28;20675;-40
2022/01/11 08:20:33;;;;;;;3.00;2.80;;;13.30;55.30;14.20;102480.00;;;;5046098;28;20166;-40
2022/01/11 08:22:59;;;;;;;3.00;2.80;;;13.30;55.20;14.20;102485.00;;;;5045055;28;20174;-39
2022/01/11 08:25:25;;;;;;;3.00;2.80;;;13.20;55.20;14.20;102490.00;;;;5044743;28;20670;-41
2022/01/11 08:27:51;;;;;;;3.10;2.90;;;13.30;55.30;14.20;102489.00;;;;5045279;28;20237;-40
2022/01/11 08:30:17;;;;;;;3.00;2.80;;;13.20;55.20;14.20;102486.00;;;;5045610;28;20178;-39
2022/01/11 08:32:42;;;;;;;2.93;2.73;;;13.20;55.10;14.20;102510.00;;;;5044117;28;20170;-39
2022/01/11 08:35:08;;;;;;;3.00;2.70;;;13.20;55.40;14.20;102481.00;;;;5044176;28;20174;-39
2022/01/11 08:37:34;;;;;;;3.10;2.90;;;13.20;55.40;14.20;102494.00;;;;5044170;28;20278;-40
2022/01/11 08:40:00;;;;;;;3.10;2.90;;;13.20;55.30;14.10;102490.00;;;;5044955;28;20512;-38
2022/01/11 08:42:27;;;;;;;3.20;2.93;;;13.20;55.30;14.10;102491.00;;;;5045240;28;20175;-39
2022/01/11 08:44:53;;;;;;;3.00;2.80;;;13.10;55.10;14.10;102495.00;;;;5044966;28;20893;-39
2022/01/11 08:47:20;;;;;;;2.70;2.50;;;13.10;55.20;14.10;102497.00;;;;5045078;28;20202;-39
2022/01/11 08:49:46;;;;;;;3.13;2.83;;;13.10;55.30;14.10;102498.00;;;;5045635;28;20293;-39
2022/01/11 08:52:11;;;;;;;3.00;2.80;;;13.10;55.10;14.10;102503.00;;;;5043482;28;20174;-38
2022/01/11 08:54:37;;;;;;;2.73;2.53;;;13.10;55.30;14.10;102505.00;;;;5045559;28;20167;-38
2022/01/11 08:57:03;;;;;;;3.10;2.90;;;13.10;55.30;14.10;102501.00;;;;5048420;28;20159;-39
2022/01/11 08:59:29;;;;;;;3.10;2.90;;;13.10;55.10;14.10;102508.00;;;;5047110;28;20256;-40
2022/01/11 09:01:57;;;;;;;2.90;2.70;;;13.10;55.00;14.00;102508.00;;;;5048659;28;20611;-39
2022/01/11 09:04:23;;;;;;;3.13;2.93;;;13.10;55.10;14.00;102514.00;;;;5050603;28;20186;-39
2022/01/11 09:06:51;;;;;;;3.00;2.80;;;13.10;55.10;14.00;102511.00;;;;5050369;28;20851;-39
2022/01/11 09:09:17;;;;;;;2.60;2.40;;;13.00;55.10;14.00;102514.00;;;;5049035;28;20194;-39
2022/01/11 09:11:44;;;;;;;3.20;2.90;;;13.00;55.00;14.00;102520.00;;;;5047946;28;20193;-39
2022/01/11 09:14:10;;;;;;;2.97;2.77;;;13.00;55.10;14.00;102520.00;;;;5050612;28;20726;-39
2022/01/11 09:16:35;;;;;;;2.90;2.70;;;13.00;55.10;13.90;102525.00;;;;5050004;28;20178;-38
2022/01/11 09:19:01;;;;;;;2.70;2.50;;;13.00;55.10;13.90;102520.00;;;;5049802;28;20252;-39
2022/01/11 09:21:27;;;;;;;3.37;3.07;;;13.00;55.00;13.90;102537.00;;;;5051997;28;20177;-39
2022/01/11 09:23:53;;;;;;;3.90;2.83;;;13.00;55.20;13.90;102521.00;;;;5046391;28;20181;-38
2022/01/11 09:26:19;;;;;;;3.93;3.03;;;12.90;55.70;13.90;102519.00;;;;5046307;28;20178;-39
2022/01/11 09:28:45;;;;;;;3.90;2.83;;;12.90;56.10;13.90;102524.00;;;;5045208;28;20198;-40
2022/01/11 09:31:10;;;;;;;4.73;2.70;;;13.10;56.00;14.00;102516.00;;;;5047458;28;20695;-39
2022/01/11 09:33:36;;;;;;;3.03;2.83;;;13.30;56.20;14.00;102520.00;;;;5049522;28;20166;-39
2022/01/11 09:36:02;;;;;;;3.43;3.10;;;13.50;55.70;14.20;102519.00;;;;5048757;28;20296;-39
2022/01/11 09:38:28;;;;;;;3.77;2.60;;;13.70;55.50;14.30;102524.00;;;;5047637;28;20816;-39
2022/01/11 09:40:55;;;;;;;3.40;2.70;;;14.00;55.20;14.40;102528.00;;;;5047870;28;20178;-39
2022/01/11 09:43:25;;;;;;;4.67;2.67;;;14.30;55.00;14.60;102526.00;;;;5047511;28;20174;-39
2022/01/11 09:45:51;;;;;;;3.47;2.60;;;14.60;54.80;14.80;102434.00;;;;5049065;28;20201;-38
2022/01/11 09:48:21;;;;;;;4.67;2.70;;;14.90;54.40;15.00;102520.00;;;;5047672;28;20671;-40
2022/01/11 09:50:47;;;;;;;4.60;2.50;;;15.20;54.10;15.20;102518.00;;;;5047188;28;20636;-39
2022/01/11 09:53:12;;;;;;;2.80;2.60;;;15.40;53.90;15.30;102524.00;;;;5045173;28;20178;-38
2022/01/11 09:55:38;;;;;;;2.83;2.60;;;15.60;53.80;15.50;102518.00;;;;5046718;28;20179;-38
2022/01/11 09:58:04;;;;;;;3.47;2.73;;;15.70;53.70;15.60;102515.00;;;;5046356;28;20202;-39
2022/01/11 10:00:30;;;;;;;9.67;2.60;;;15.70;53.60;15.70;102514.00;;;;5047181;28;20569;-43
2022/01/11 10:02:56;;;;;;;8.17;2.80;;;15.70;54.00;15.80;102520.00;;;;5046722;28;20204;-39
2022/01/11 10:05:22;;;;;;;8.13;2.90;;;15.90;54.50;16.00;102517.00;;;;5044344;28;20182;-39
2022/01/11 10:07:48;;;;;;;8.67;3.00;;;16.00;54.80;16.10;102519.00;;;;5045303;28;20186;-39
2022/01/11 10:10:22;;;;;;;9.33;3.33;;;16.10;54.70;15.80;102514.00;;;;5047144;28;20182;-39
2022/01/11 10:12:51;;;;;;;9.67;3.13;;;16.20;54.80;16.30;102520.00;;;;5045544;28;20881;-39
2022/01/11 10:15:33;;;;;;;10.87;3.50;;;16.30;54.50;16.40;102518.00;;;;5046203;28;20341;-39
2022/01/11 10:17:59;;;;;;;8.47;3.00;;;16.30;54.40;16.40;102525.00;;;;5046183;28;20281;-38
2022/01/11 10:20:26;;;;;;;6.37;3.17;;;16.50;54.30;16.50;102524.00;;;;5045672;28;20253;-38
2022/01/11 10:23:08;;;;;;;7.07;3.03;;;16.50;54.30;16.60;102518.00;;;;5044459;28;20179;-39
2022/01/11 10:25:46;;;;;;;6.60;2.87;;;16.60;54.80;16.70;102506.00;;;;5048090;28;20654;-39
2022/01/11 10:28:11;;;;;;;4.43;2.70;;;16.70;55.30;16.80;102510.00;;;;5053388;28;20288;-40
2022/01/11 10:30:37;;;;;;;7.13;2.77;;;16.70;55.80;16.80;102515.00;;;;5049294;28;20175;-40
2022/01/11 10:33:06;;;;;;;5.00;2.80;;;16.70;56.00;16.90;102505.00;;;;5047692;28;20182;-39
2022/01/11 10:35:42;;;;;;;5.70;3.10;;;16.80;55.80;16.90;102499.00;;;;5048802;28;20257;-39
2022/01/11 10:38:09;;;;;;;9.90;3.27;;;16.80;55.70;17.00;102510.00;;;;5047859;28;20194;-40
2022/01/11 10:40:44;;;;;;;9.93;3.43;;;16.80;55.70;17.00;102508.00;;;;5049154;28;20202;-40
2022/01/11 10:43:15;;;;;;;6.47;2.83;;;16.80;55.70;17.00;102508.00;;;;5048487;28;20222;-39
2022/01/11 10:45:55;;;;;;;6.30;3.10;;;16.80;55.80;17.00;102507.00;;;;5048630;28;20276;-39
2022/01/11 10:48:27;;;;;;;3.53;2.70;;;16.80;55.70;17.10;102510.00;;;;5049782;28;20205;-39